Time;durP1;ratioP1;P1;durP2;ratioP2;P2;SDS_P1;SDS_P2;PMS_P1;PMS_P2;Temp;Humidity;BMP_temperature;BMP_pressure;BME280_temperature;BME280_humidity;BME280_pressure;Samples;Min_cycle;Max_cycle;Signal;HPM_P1;HPM_P2
2022/07/14 00:00:45;;;;;;;0.00;0.00;;;14.80;99.90;;;;;;4962178;28;20608;-73
2022/07/14 00:03:14;;;;;;;0.00;0.00;;;14.80;99.90;;;;;;4962108;28;20448;-73
2022/07/14 00:05:42;;;;;;;0.00;0.00;;;14.80;99.90;;;;;;4961995;28;21234;-73
2022/07/14 00:08:10;;;;;;;0.00;0.00;;;14.70;99.90;;;;;;4961982;28;20565;-73
2022/07/14 00:10:38;;;;;;;0.00;0.00;;;14.70;99.90;;;;;;4961913;28;21042;-74
2022/07/14 00:13:06;;;;;;;0.00;0.00;;;14.70;99.90;;;;;;4962018;28;21072;-73
2022/07/14 00:15:33;;;;;;;0.00;0.00;;;14.70;99.90;;;;;;4962174;28;20799;-73
2022/07/14 00:18:02;;;;;;;0.00;0.00;;;14.70;99.90;;;;;;4962219;28;20463;-72
2022/07/14 00:20:32;;;;;;;0.00;0.00;;;14.70;99.90;;;;;;4966382;28;20943;-74
2022/07/14 00:23:00;;;;;;;0.00;0.00;;;14.60;99.90;;;;;;4964743;28;20519;-73
2022/07/14 00:25:28;;;;;;;0.00;0.00;;;14.60;99.90;;;;;;4961780;28;20555;-73
2022/07/14 00:27:56;;;;;;;0.00;0.00;;;14.60;99.90;;;;;;4962054;28;20817;-73
2022/07/14 00:30:24;;;;;;;0.00;0.00;;;14.50;99.90;;;;;;4962026;28;20460;-73
2022/07/14 00:32:54;;;;;;;0.00;0.00;;;14.50;99.90;;;;;;4961370;28;20440;-73
2022/07/14 00:35:22;;;;;;;0.00;0.00;;;14.50;99.90;;;;;;4961376;28;20451;-74
2022/07/14 00:37:51;;;;;;;0.00;0.00;;;14.40;99.90;;;;;;4961301;28;20478;-73
2022/07/14 00:40:19;;;;;;;0.00;0.00;;;14.40;99.90;;;;;;4961127;28;20805;-72
2022/07/14 00:42:49;;;;;;;0.00;0.00;;;14.40;99.90;;;;;;4961388;28;20484;-73
2022/07/14 00:45:18;;;;;;;0.00;0.00;;;14.40;99.90;;;;;;4961649;28;20458;-73
2022/07/14 00:47:46;;;;;;;0.00;0.00;;;14.50;99.90;;;;;;4961380;28;20466;-73
2022/07/14 00:50:16;;;;;;;0.00;0.00;;;14.50;99.90;;;;;;4960881;28;20458;-73
2022/07/14 00:52:45;;;;;;;0.00;0.00;;;14.40;99.90;;;;;;4961279;28;20455;-73
2022/07/14 00:55:16;;;;;;;0.00;0.00;;;14.40;99.90;;;;;;4961400;28;20450;-73
2022/07/14 00:57:46;;;;;;;0.00;0.00;;;14.30;99.90;;;;;;4961273;28;20490;-74
2022/07/14 01:00:15;;;;;;;0.00;0.00;;;14.40;99.90;;;;;;4960891;28;20718;-74
2022/07/14 01:02:45;;;;;;;0.00;0.00;;;14.30;99.90;;;;;;4960967;28;21075;-74
2022/07/14 01:05:13;;;;;;;0.00;0.00;;;14.30;99.90;;;;;;4961338;28;20658;-73
2022/07/14 01:07:41;;;;;;;0.00;0.00;;;14.40;99.90;;;;;;4960897;28;21095;-74
2022/07/14 01:10:10;;;;;;;0.00;0.00;;;14.30;99.90;;;;;;4960596;28;20744;-74
2022/07/14 01:12:44;;;;;;;0.00;0.00;;;14.30;99.90;;;;;;4960732;28;20444;-74
2022/07/14 01:15:13;;;;;;;0.00;0.00;;;14.20;99.90;;;;;;4960697;28;20459;-73
2022/07/14 01:17:41;;;;;;;0.00;0.00;;;14.20;99.90;;;;;;4960598;28;20463;-74
2022/07/14 01:20:10;;;;;;;0.00;0.00;;;14.20;99.90;;;;;;4961054;28;20591;-74
2022/07/14 01:22:39;;;;;;;0.00;0.00;;;14.20;99.90;;;;;;4960498;28;20740;-73
2022/07/14 01:25:08;;;;;;;0.00;0.00;;;14.20;99.90;;;;;;4962666;28;20456;-75
2022/07/14 01:27:36;;;;;;;0.00;0.00;;;14.20;99.90;;;;;;4966904;28;20474;-72
2022/07/14 01:30:05;;;;;;;0.00;0.00;;;14.10;99.90;;;;;;4961174;28;20448;-74
2022/07/14 01:32:34;;;;;;;0.00;0.00;;;14.00;99.90;;;;;;4960471;28;20459;-75
2022/07/14 01:35:01;;;;;;;0.00;0.00;;;14.00;99.90;;;;;;4960468;28;20452;-73
2022/07/14 01:37:29;;;;;;;0.00;0.00;;;14.00;99.90;;;;;;4960039;28;20456;-74
2022/07/14 01:39:59;;;;;;;0.00;0.00;;;14.00;99.90;;;;;;4960773;28;20479;-74
2022/07/14 01:42:26;;;;;;;0.00;0.00;;;14.00;99.90;;;;;;4960143;28;20518;-74
2022/07/14 01:44:54;;;;;;;0.00;0.00;;;14.00;99.90;;;;;;4960253;28;20849;-74
2022/07/14 01:47:22;;;;;;;0.00;0.00;;;14.00;99.90;;;;;;4960279;28;20463;-74
2022/07/14 01:49:50;;;;;;;0.00;0.00;;;14.00;99.90;;;;;;4959988;28;20439;-74
2022/07/14 01:52:18;;;;;;;0.00;0.00;;;14.00;99.90;;;;;;4960267;28;20550;-74
2022/07/14 01:54:45;;;;;;;0.00;0.00;;;13.90;99.90;;;;;;4960413;28;20459;-74
2022/07/14 01:57:15;;;;;;;0.00;0.00;;;13.90;99.90;;;;;;4960923;28;21006;-73
2022/07/14 01:59:42;;;;;;;0.00;0.00;;;13.90;99.90;;;;;;4960389;28;20443;-73
2022/07/14 02:02:12;;;;;;;0.00;0.00;;;13.90;99.90;;;;;;4959312;28;20483;-73
2022/07/14 02:04:40;;;;;;;0.00;0.00;;;13.90;99.90;;;;;;4960250;28;21002;-73
2022/07/14 02:07:08;;;;;;;0.00;0.00;;;13.80;99.90;;;;;;4960808;28;20467;-73
2022/07/14 02:12:23;;;;;;;0.00;0.00;;;13.80;99.90;;;;;;4960111;28;20540;-72
2022/07/14 02:14:51;;;;;;;0.00;0.00;;;13.80;99.90;;;;;;4959726;28;20446;-73
2022/07/14 02:22:36;;;;;;;0.00;0.00;;;13.70;99.90;;;;;;4989060;23;20503;-91
2022/07/14 02:25:06;;;;;;;0.00;0.00;;;13.70;99.90;;;;;;4974199;28;20531;-93
2022/07/14 02:27:35;;;;;;;0.00;0.00;;;13.70;99.90;;;;;;4974605;28;20468;-91
2022/07/14 02:30:05;;;;;;;0.00;0.00;;;13.70;99.90;;;;;;4973899;28;20514;-93
2022/07/14 02:32:33;;;;;;;0.00;0.00;;;13.60;99.90;;;;;;4972801;28;20566;-91
2022/07/14 02:35:01;;;;;;;0.00;0.00;;;13.60;99.90;;;;;;4971441;28;21177;-94
2022/07/14 02:37:29;;;;;;;0.00;0.00;;;13.60;99.90;;;;;;4973336;28;20490;-93
2022/07/14 02:39:56;;;;;;;0.00;0.00;;;13.60;99.90;;;;;;4972023;28;20547;-92
2022/07/14 02:42:25;;;;;;;0.00;0.00;;;13.60;99.90;;;;;;4971901;28;20898;-92
2022/07/14 02:44:56;;;;;;;0.00;0.00;;;13.60;99.90;;;;;;4971979;28;20502;-91
2022/07/14 02:47:24;;;;;;;0.00;0.00;;;13.50;99.90;;;;;;4971826;28;20483;-91
2022/07/14 02:49:52;;;;;;;0.00;0.00;;;13.50;99.90;;;;;;4974266;28;20456;-93
2022/07/14 02:52:20;;;;;;;0.00;0.00;;;13.50;99.90;;;;;;4981865;28;20932;-91
2022/07/14 02:54:49;;;;;;;0.00;0.00;;;13.50;99.90;;;;;;4986607;28;20448;-92
2022/07/14 02:57:17;;;;;;;0.00;0.00;;;13.50;99.90;;;;;;4986762;28;20669;-94
2022/07/14 02:59:47;;;;;;;0.00;0.00;;;13.60;99.90;;;;;;4979487;28;20970;-91
2022/07/14 03:02:17;;;;;;;0.00;0.00;;;13.50;99.90;;;;;;4970309;28;20479;-93
2022/07/14 03:04:46;;;;;;;0.00;0.00;;;13.50;99.90;;;;;;4971620;28;20456;-94
2022/07/14 03:07:14;;;;;;;0.00;0.00;;;13.50;99.90;;;;;;4972900;28;20448;-94
2022/07/14 03:09:42;;;;;;;0.00;0.00;;;13.50;99.90;;;;;;4972267;28;20950;-92
2022/07/14 03:12:10;;;;;;;0.00;0.00;;;13.50;99.90;;;;;;4971664;28;20514;-92
2022/07/14 03:14:38;;;;;;;0.00;0.00;;;13.50;99.90;;;;;;4974992;28;20460;-91
2022/07/14 03:17:06;;;;;;;0.00;0.00;;;13.50;99.90;;;;;;4975773;28;20720;-92
2022/07/14 03:19:36;;;;;;;0.00;0.00;;;13.40;99.90;;;;;;4982454;28;20471;-93
2022/07/14 03:22:04;;;;;;;0.00;0.00;;;13.40;99.90;;;;;;4978672;28;20607;-91
2022/07/14 03:24:32;;;;;;;0.00;0.00;;;13.30;99.90;;;;;;4974855;28;20518;-90
2022/07/14 03:27:00;;;;;;;0.00;0.00;;;13.40;99.90;;;;;;4975959;28;20740;-92
2022/07/14 03:29:28;;;;;;;0.00;0.00;;;13.40;99.90;;;;;;4976406;28;20498;-91
2022/07/14 03:31:56;;;;;;;0.00;0.00;;;13.40;99.90;;;;;;4976464;28;20469;-92
2022/07/14 03:34:24;;;;;;;0.00;0.00;;;13.40;99.90;;;;;;4975161;28;20558;-92
2022/07/14 03:36:57;;;;;;;0.00;0.00;;;13.50;99.90;;;;;;4975183;28;20486;-93
2022/07/14 03:39:25;;;;;;;0.00;0.00;;;13.40;99.90;;;;;;4974899;28;20452;-92
2022/07/14 03:41:53;;;;;;;0.00;0.00;;;13.40;99.90;;;;;;4974908;28;21180;-91
2022/07/14 03:44:21;;;;;;;0.00;0.00;;;13.50;99.90;;;;;;4976121;28;20510;-92
2022/07/14 03:46:49;;;;;;;0.00;0.00;;;13.50;99.90;;;;;;4975775;28;20558;-93
2022/07/14 03:49:17;;;;;;;0.00;0.00;;;13.50;99.90;;;;;;4975112;28;20503;-93
2022/07/14 03:51:45;;;;;;;0.00;0.00;;;13.50;99.90;;;;;;4976337;28;20459;-91
2022/07/14 03:54:15;;;;;;;0.00;0.00;;;13.50;99.90;;;;;;4975257;28;20590;-91
2022/07/14 03:56:43;;;;;;;0.00;0.00;;;13.50;99.90;;;;;;4984092;28;20444;-93
2022/07/14 03:59:11;;;;;;;0.00;0.00;;;13.50;99.90;;;;;;4991455;28;20590;-92
2022/07/14 04:01:39;;;;;;;0.00;0.00;;;13.50;99.90;;;;;;4978633;28;20479;-93
2022/07/14 04:04:08;;;;;;;0.00;0.00;;;13.60;99.90;;;;;;4977715;28;20484;-93
2022/07/14 04:06:36;;;;;;;0.00;0.00;;;13.60;99.90;;;;;;4976571;28;20475;-93
2022/07/14 04:09:05;;;;;;;0.00;0.00;;;13.60;99.90;;;;;;4977434;28;20878;-91
2022/07/14 04:11:35;;;;;;;0.00;0.00;;;13.70;99.90;;;;;;4980705;28;20503;-92
2022/07/14 04:14:03;;;;;;;0.00;0.00;;;13.70;99.90;;;;;;4978338;28;20476;-92
2022/07/14 04:16:31;;;;;;;0.00;0.00;;;13.70;99.90;;;;;;4977925;28;20456;-92
2022/07/14 04:19:22;;;;;;;;;;;;;;;;;;;;;
2022/07/14 04:21:56;;;;;;;0.00;0.00;;;13.80;99.90;;;;;;4981639;28;20451;-93
2022/07/14 04:24:44;;;;;;;0.00;0.00;;;13.90;99.90;;;;;;4976185;28;20482;-91
2022/07/14 04:27:14;;;;;;;0.00;0.00;;;14.00;99.90;;;;;;4980641;28;20941;-93
2022/07/14 04:29:42;;;;;;;0.00;0.00;;;14.00;99.90;;;;;;4976532;28;20487;-92
2022/07/14 04:32:11;;;;;;;0.00;0.00;;;13.90;99.90;;;;;;4978096;28;20543;-94
2022/07/14 04:34:39;;;;;;;0.00;0.00;;;14.00;99.90;;;;;;4981029;28;20598;-93
2022/07/14 04:37:07;;;;;;;0.00;0.00;;;14.00;99.90;;;;;;4980719;28;20459;-93
2022/07/14 04:39:35;;;;;;;0.00;0.00;;;14.10;99.90;;;;;;4981705;28;20729;-90
2022/07/14 04:42:06;;;;;;;0.00;0.00;;;14.10;99.90;;;;;;4979588;28;20472;-91
2022/07/14 04:44:36;;;;;;;0.00;0.00;;;14.20;99.90;;;;;;4976789;28;20487;-93
2022/07/14 04:47:04;;;;;;;0.00;0.00;;;14.20;99.90;;;;;;4983425;28;21023;-93
2022/07/14 04:52:17;;;;;;;0.00;0.00;;;14.30;99.90;;;;;;4992547;28;21052;-92
2022/07/14 04:55:12;;;;;;;0.00;0.00;;;14.40;99.90;;;;;;4993382;28;20440;-92
2022/07/14 04:57:41;;;;;;;0.00;0.00;;;14.50;99.90;;;;;;4992297;28;20440;-91
2022/07/14 05:00:24;;;;;;;0.00;0.00;;;14.50;99.90;;;;;;4992386;28;20448;-90
2022/07/14 05:03:00;;;;;;;0.00;0.00;;;14.60;99.90;;;;;;4992805;28;20491;-90
2022/07/14 05:05:29;;;;;;;0.00;0.00;;;14.70;99.90;;;;;;4982252;28;20495;-92
2022/07/14 05:07:57;;;;;;;0.00;0.00;;;14.80;99.90;;;;;;4982564;28;20452;-94
2022/07/14 05:10:25;;;;;;;0.00;0.00;;;14.80;99.90;;;;;;4977736;28;20786;-91
2022/07/14 05:12:53;;;;;;;0.00;0.00;;;14.90;99.90;;;;;;4979788;28;20571;-92
2022/07/14 05:15:25;;;;;;;0.00;0.00;;;14.90;99.90;;;;;;4981259;28;20486;-92
2022/07/14 05:17:53;;;;;;;0.00;0.00;;;15.00;99.90;;;;;;4981622;28;20466;-92
2022/07/14 05:20:22;;;;;;;0.00;0.00;;;15.00;99.90;;;;;;4986973;28;20464;-91
2022/07/14 05:22:50;;;;;;;0.00;0.00;;;15.10;99.90;;;;;;4979674;28;20523;-92
2022/07/14 05:25:18;;;;;;;0.00;0.00;;;15.10;99.90;;;;;;4978836;28;20486;-91
2022/07/14 05:27:47;;;;;;;0.00;0.00;;;15.20;99.90;;;;;;4974971;28;20456;-92
2022/07/14 05:30:17;;;;;;;0.00;0.00;;;15.30;99.90;;;;;;4973376;28;20452;-91
2022/07/14 05:32:47;;;;;;;0.00;0.00;;;15.40;99.90;;;;;;4972361;28;21030;-92
2022/07/14 05:35:15;;;;;;;0.00;0.00;;;15.50;99.90;;;;;;4974080;28;20452;-92
2022/07/14 05:37:43;;;;;;;0.00;0.00;;;15.60;99.90;;;;;;4972519;28;20494;-91
2022/07/14 05:40:13;;;;;;;0.00;0.00;;;15.70;99.90;;;;;;4974622;28;20534;-89
2022/07/14 05:42:41;;;;;;;0.00;0.00;;;15.80;99.90;;;;;;4973474;28;20751;-91
2022/07/14 05:45:10;;;;;;;0.00;0.00;;;15.80;99.90;;;;;;4973159;28;20566;-90
2022/07/14 05:47:41;;;;;;;0.00;0.00;;;15.80;99.90;;;;;;4973374;28;20888;-91
2022/07/14 05:50:11;;;;;;;0.00;0.00;;;15.90;99.90;;;;;;4973568;28;20458;-90
2022/07/14 05:52:42;;;;;;;0.00;0.00;;;16.00;99.90;;;;;;4982556;28;20717;-93
2022/07/14 05:55:10;;;;;;;0.00;0.00;;;15.90;99.90;;;;;;4981492;28;20439;-92
2022/07/14 05:57:38;;;;;;;0.00;0.00;;;16.00;99.90;;;;;;4980438;28;20624;-92
2022/07/14 06:00:09;;;;;;;0.00;0.00;;;16.00;99.90;;;;;;4986842;28;20452;-90
2022/07/14 06:02:37;;;;;;;0.00;0.00;;;16.00;99.90;;;;;;4975594;28;20475;-91
2022/07/14 06:05:06;;;;;;;0.00;0.00;;;16.00;99.90;;;;;;4975799;28;20556;-89
2022/07/14 06:07:35;;;;;;;0.00;0.00;;;16.20;99.90;;;;;;4973321;28;20484;-92
2022/07/14 06:10:05;;;;;;;0.00;0.00;;;16.20;99.90;;;;;;4972655;28;20476;-91
2022/07/14 06:12:33;;;;;;;0.00;0.00;;;16.20;99.90;;;;;;4973338;28;20472;-91
2022/07/14 06:15:01;;;;;;;0.00;0.00;;;16.30;99.90;;;;;;4971212;28;20460;-92
2022/07/14 06:17:30;;;;;;;0.00;0.00;;;16.40;99.90;;;;;;4972613;28;20860;-91
2022/07/14 06:20:00;;;;;;;0.00;0.00;;;16.50;99.90;;;;;;4972167;28;20974;-90
2022/07/14 06:22:29;;;;;;;0.00;0.00;;;16.50;99.90;;;;;;4970792;28;20496;-91
2022/07/14 06:25:02;;;;;;;0.00;0.00;;;16.60;99.90;;;;;;4970282;28;20690;-90
2022/07/14 06:27:30;;;;;;;0.00;0.00;;;16.70;99.90;;;;;;4978416;28;20452;-93
2022/07/14 06:29:58;;;;;;;0.00;0.00;;;16.70;99.90;;;;;;4975589;28;20523;-91
2022/07/14 06:32:27;;;;;;;0.00;0.00;;;16.80;99.90;;;;;;4975276;28;20476;-93
2022/07/14 06:34:55;;;;;;;0.00;0.00;;;16.90;99.90;;;;;;4974787;28;20462;-91
2022/07/14 06:37:24;;;;;;;0.00;0.00;;;17.00;99.90;;;;;;4971822;28;20456;-91
2022/07/14 06:39:54;;;;;;;0.00;0.00;;;17.00;99.90;;;;;;4972089;28;20453;-90
2022/07/14 06:42:23;;;;;;;0.00;0.00;;;17.10;99.90;;;;;;4973347;28;20493;-91
2022/07/14 06:44:52;;;;;;;0.00;0.00;;;17.20;99.90;;;;;;4975647;28;20867;-92
2022/07/14 06:47:20;;;;;;;0.00;0.00;;;17.20;99.90;;;;;;4974898;28;20451;-90
2022/07/14 06:49:48;;;;;;;0.00;0.00;;;17.20;99.90;;;;;;4977396;28;20451;-92
2022/07/14 06:52:19;;;;;;;0.00;0.00;;;17.20;99.90;;;;;;4988060;28;20475;-92
2022/07/14 06:54:48;;;;;;;0.00;0.00;;;17.40;99.90;;;;;;4979457;28;20746;-90
2022/07/14 06:57:16;;;;;;;0.00;0.00;;;17.50;99.90;;;;;;4982899;28;20460;-93
2022/07/14 06:59:46;;;;;;;0.00;0.00;;;17.60;99.90;;;;;;4990092;28;20443;-92
2022/07/14 07:02:14;;;;;;;0.00;0.00;;;17.80;99.90;;;;;;4976081;28;20464;-92
2022/07/14 07:06:43;;;;;;;0.00;0.00;;;18.10;99.90;;;;;;4978066;28;20665;-93
2022/07/14 07:07:40;;;;;;;0.00;0.00;;;18.20;99.90;;;;;;4988768;28;20462;-91
2022/07/14 07:10:15;;;;;;;0.00;0.00;;;18.20;99.90;;;;;;4989053;28;20501;-92
2022/07/14 07:15:45;;;;;;;0.00;0.00;;;18.30;99.90;;;;;;4983760;28;20491;-94
2022/07/14 07:18:14;;;;;;;0.00;0.00;;;18.40;99.90;;;;;;4973435;28;21059;-92
2022/07/14 07:20:44;;;;;;;0.00;0.00;;;18.40;99.90;;;;;;4993620;28;20466;-91
2022/07/14 07:23:19;;;;;;;0.00;0.00;;;18.40;99.90;;;;;;4991964;28;20504;-93
2022/07/14 07:25:47;;;;;;;0.00;0.00;;;18.60;99.90;;;;;;4992311;28;20576;-92
2022/07/14 07:28:16;;;;;;;0.00;0.00;;;18.80;99.90;;;;;;4992547;28;20552;-91
2022/07/14 07:30:46;;;;;;;0.00;0.00;;;19.00;99.90;;;;;;4989964;28;20474;-92
2022/07/14 07:33:16;;;;;;;0.00;0.00;;;19.20;99.90;;;;;;4992187;28;20658;-91
2022/07/14 07:35:46;;;;;;;0.00;0.00;;;19.40;99.90;;;;;;4981686;28;20764;-91
2022/07/14 07:38:14;;;;;;;0.00;0.00;;;19.40;99.90;;;;;;4976597;28;20440;-90
2022/07/14 07:40:44;;;;;;;0.00;0.00;;;19.40;99.90;;;;;;4976394;28;20931;-91
2022/07/14 07:43:13;;;;;;;0.00;0.00;;;19.20;99.90;;;;;;4974959;28;20554;-92
2022/07/14 07:45:44;;;;;;;0.00;0.00;;;19.00;99.90;;;;;;4972505;28;20901;-91
2022/07/14 07:48:14;;;;;;;0.00;0.00;;;18.90;99.90;;;;;;4973674;28;20466;-92
2022/07/14 07:50:43;;;;;;;0.00;0.00;;;18.80;99.90;;;;;;4972876;28;20462;-92
2022/07/14 07:53:12;;;;;;;0.00;0.00;;;18.80;99.90;;;;;;4974392;28;20479;-92
2022/07/14 07:55:41;;;;;;;0.00;0.00;;;18.90;99.90;;;;;;4972123;28;20502;-91
2022/07/14 07:58:09;;;;;;;0.00;0.00;;;19.20;99.90;;;;;;4979651;28;20452;-93
2022/07/14 08:00:38;;;;;;;0.00;0.00;;;19.30;99.90;;;;;;4986221;28;20458;-91
2022/07/14 08:03:06;;;;;;;0.00;0.00;;;19.30;99.90;;;;;;4982198;28;20472;-92
2022/07/14 08:05:36;;;;;;;0.00;0.00;;;19.20;99.90;;;;;;4984870;28;20482;-92
2022/07/14 08:08:22;;;;;;;0.00;0.00;;;19.00;99.90;;;;;;4984336;28;20534;-92
2022/07/14 08:10:50;;;;;;;0.00;0.00;;;18.90;99.90;;;;;;4979176;28;20455;-92
2022/07/14 08:13:19;;;;;;;0.00;0.00;;;18.80;99.90;;;;;;4977456;28;20826;-92
2022/07/14 08:15:48;;;;;;;0.00;0.00;;;18.90;99.90;;;;;;4976691;28;20458;-92
2022/07/14 08:18:19;;;;;;;0.00;0.00;;;19.00;99.90;;;;;;4974870;28;20481;-93
2022/07/14 08:20:49;;;;;;;0.00;0.00;;;19.20;99.90;;;;;;4975563;28;20525;-92
2022/07/14 08:23:17;;;;;;;0.00;0.00;;;19.50;99.90;;;;;;4978690;28;20527;-92
2022/07/14 08:25:46;;;;;;;0.00;0.00;;;19.70;99.90;;;;;;4981424;28;20861;-94
2022/07/14 08:28:15;;;;;;;0.00;0.00;;;19.70;99.90;;;;;;4985028;28;20459;-93
2022/07/14 08:30:43;;;;;;;0.00;0.00;;;19.60;99.90;;;;;;4976488;28;21002;-92
2022/07/14 08:33:15;;;;;;;0.00;0.00;;;19.60;99.90;;;;;;4978763;28;20605;-93
2022/07/14 08:35:48;;;;;;;0.00;0.00;;;19.50;99.90;;;;;;4978210;28;20459;-92
2022/07/14 08:38:18;;;;;;;0.00;0.00;;;19.30;99.90;;;;;;4976330;28;20455;-93
2022/07/14 08:41:02;;;;;;;0.00;0.00;;;19.40;99.90;;;;;;4979590;28;20459;-90
2022/07/14 08:43:40;;;;;;;0.00;0.00;;;19.60;99.90;;;;;;4987987;28;20506;-90
2022/07/14 08:46:08;;;;;;;0.00;0.00;;;19.80;99.90;;;;;;4992885;28;20467;-91
2022/07/14 08:48:37;;;;;;;0.00;0.00;;;19.80;99.90;;;;;;4993429;28;20470;-93
2022/07/14 08:51:11;;;;;;;0.00;0.00;;;19.70;99.90;;;;;;4994535;28;20452;-91
2022/07/14 08:53:46;;;;;;;0.00;0.00;;;19.60;99.90;;;;;;4994237;28;20538;-92
2022/07/14 08:56:15;;;;;;;0.00;0.00;;;19.50;99.90;;;;;;4992740;28;20502;-92
2022/07/14 08:58:46;;;;;;;0.00;0.00;;;19.70;99.90;;;;;;4993123;28;20444;-93
2022/07/14 09:01:21;;;;;;;0.00;0.00;;;19.90;99.90;;;;;;4993153;28;20678;-91
2022/07/14 09:03:56;;;;;;;0.00;0.00;;;20.00;99.90;;;;;;4992626;28;20482;-93
2022/07/14 09:07:16;;;;;;;0.00;0.00;;;20.20;99.90;;;;;;4971409;28;20484;-89
2022/07/14 09:09:55;;;;;;;0.00;0.00;;;20.40;99.90;;;;;;4970817;28;20451;-93
2022/07/14 09:18:20;;;;;;;0.00;0.00;;;20.00;99.90;;;;;;4921823;29;21048;-92
2022/07/14 09:20:50;;;;;;;0.00;0.00;;;20.20;99.90;;;;;;4965581;28;20459;-91
2022/07/14 09:23:31;;;;;;;0.00;0.00;;;20.40;99.90;;;;;;4971815;28;20855;-90
2022/07/14 09:26:18;;;;;;;0.00;0.00;;;20.60;99.90;;;;;;4970296;28;20566;-90
2022/07/14 09:28:48;;;;;;;0.00;0.00;;;20.80;99.90;;;;;;4969929;28;20476;-91
2022/07/14 09:31:22;;;;;;;0.00;0.00;;;20.70;99.90;;;;;;4970151;28;20506;-92
2022/07/14 09:33:52;;;;;;;0.00;0.00;;;20.70;99.90;;;;;;4970221;28;20475;-93
2022/07/14 09:36:26;;;;;;;0.00;0.00;;;20.90;99.90;;;;;;4973499;28;20882;-93
2022/07/14 09:38:59;;;;;;;0.00;0.00;;;20.90;99.90;;;;;;4980089;28;20436;-90
2022/07/14 09:41:35;;;;;;;0.00;0.00;;;20.90;99.90;;;;;;4995546;28;20551;-90
2022/07/14 09:44:09;;;;;;;0.00;0.00;;;21.00;99.90;;;;;;4978208;28;20547;-91
2022/07/14 09:46:44;;;;;;;0.00;0.00;;;21.20;99.90;;;;;;4973903;28;20475;-92
2022/07/14 09:49:16;;;;;;;0.00;0.00;;;21.40;99.90;;;;;;4971800;28;20942;-92
2022/07/14 09:52:01;;;;;;;0.00;0.00;;;21.50;99.90;;;;;;4974151;28;20619;-90
2022/07/14 09:54:49;;;;;;;0.00;0.00;;;21.60;99.90;;;;;;4975812;28;20444;-91
2022/07/14 09:57:29;;;;;;;0.00;0.00;;;21.70;99.90;;;;;;4972636;28;20479;-90
2022/07/14 10:00:10;;;;;;;0.00;0.00;;;21.80;99.90;;;;;;4989445;28;20454;-92
2022/07/14 10:02:41;;;;;;;0.00;0.00;;;22.00;99.90;;;;;;4975329;28;21003;-90
2022/07/14 10:05:12;;;;;;;0.00;0.00;;;22.10;99.90;;;;;;4975613;28;20509;-92
2022/07/14 10:07:49;;;;;;;0.00;0.00;;;22.30;99.90;;;;;;4978212;28;20541;-91
2022/07/14 10:10:25;;;;;;;0.00;0.00;;;22.30;99.90;;;;;;4976864;28;20922;-92
2022/07/14 10:12:55;;;;;;;0.00;0.00;;;22.30;99.90;;;;;;4974168;28;20476;-91
2022/07/14 10:15:24;;;;;;;0.00;0.00;;;22.30;99.90;;;;;;4972887;28;20599;-90
2022/07/14 10:17:53;;;;;;;0.00;0.00;;;22.20;99.90;;;;;;4974232;28;20869;-91
2022/07/14 10:20:24;;;;;;;0.00;0.00;;;22.10;99.90;;;;;;4976055;28;20450;-94
2022/07/14 10:22:55;;;;;;;0.00;0.00;;;22.10;99.90;;;;;;4972279;28;20500;-92
2022/07/14 10:25:28;;;;;;;0.00;0.00;;;22.40;99.90;;;;;;4972841;28;20448;-92
2022/07/14 10:27:57;;;;;;;0.00;0.00;;;22.40;99.90;;;;;;4971728;28;20476;-92
2022/07/14 10:30:36;;;;;;;0.00;0.00;;;22.40;99.90;;;;;;4971885;28;20482;-89
2022/07/14 10:33:13;;;;;;;0.00;0.00;;;22.60;99.90;;;;;;4971885;28;20812;-92
2022/07/14 10:36:13;;;;;;;0.00;0.00;;;22.70;99.90;;;;;;4972207;28;20504;-91
2022/07/14 10:39:06;;;;;;;0.00;0.00;;;22.70;99.90;;;;;;4971552;28;20452;-92
2022/07/14 10:42:02;;;;;;;0.00;0.00;;;22.60;99.90;;;;;;4971373;28;20483;-92
2022/07/14 10:44:33;;;;;;;0.00;0.00;;;22.60;99.90;;;;;;4970753;28;20522;-92
2022/07/14 10:47:09;;;;;;;0.00;0.00;;;22.50;99.90;;;;;;4970655;28;20568;-90
2022/07/14 10:50:06;;;;;;;0.00;0.00;;;22.50;99.90;;;;;;4971562;28;20696;-91
2022/07/14 10:52:53;;;;;;;0.00;0.00;;;22.40;99.90;;;;;;4972064;28;20477;-91
2022/07/14 10:55:40;;;;;;;0.00;0.00;;;22.30;99.90;;;;;;4984208;28;20959;-89
2022/07/14 10:58:30;;;;;;;0.00;0.00;;;22.30;99.90;;;;;;4979772;28;20452;-91
2022/07/14 11:00:59;;;;;;;0.00;0.00;;;22.40;99.90;;;;;;4987895;28;20479;-90
2022/07/14 11:03:47;;;;;;;0.00;0.00;;;22.50;99.90;;;;;;4972515;28;20802;-93
2022/07/14 11:06:20;;;;;;;0.00;0.00;;;22.60;99.90;;;;;;4972935;28;20463;-91
2022/07/14 11:09:40;;;;;;;0.00;0.00;;;22.70;99.90;;;;;;4972178;28;20658;-91
2022/07/14 11:12:13;;;;;;;0.00;0.00;;;22.60;99.90;;;;;;4973145;28;20433;-92
2022/07/14 11:14:45;;;;;;;0.00;0.00;;;22.60;99.90;;;;;;4973033;28;20454;-91
2022/07/14 11:17:40;;;;;;;0.00;0.00;;;22.60;99.90;;;;;;4971892;28;20442;-92
2022/07/14 11:20:11;;;;;;;0.00;0.00;;;22.60;99.90;;;;;;4967509;28;20504;-91
2022/07/14 11:22:42;;;;;;;0.00;0.00;;;22.50;99.90;;;;;;4976625;28;20488;-95
2022/07/14 11:25:27;;;;;;;0.00;0.00;;;22.40;99.90;;;;;;4974472;28;20616;-93
2022/07/14 11:27:55;;;;;;;0.00;0.00;;;22.50;99.90;;;;;;4982473;28;20485;-92
2022/07/14 11:30:28;;;;;;;0.00;0.00;;;22.50;99.90;;;;;;4979424;28;20454;-91
2022/07/14 11:33:09;;;;;;;0.00;0.00;;;22.50;99.90;;;;;;4975986;28;20478;-91
2022/07/14 11:38:40;;;;;;;0.00;0.00;;;22.70;99.90;;;;;;4980846;28;20537;-93
2022/07/14 11:41:12;;;;;;;0.00;0.00;;;22.50;99.90;;;;;;4991136;28;20509;-91
2022/07/14 11:43:46;;;;;;;0.00;0.00;;;22.40;99.90;;;;;;4990704;28;20464;-91
2022/07/14 11:46:23;;;;;;;0.00;0.00;;;22.50;99.90;;;;;;4984225;28;20459;-92
2022/07/14 11:48:55;;;;;;;0.00;0.00;;;22.40;99.90;;;;;;4984873;28;20479;-91
2022/07/14 11:51:26;;;;;;;0.00;0.00;;;22.40;99.90;;;;;;4989873;28;20475;-92
2022/07/14 11:53:57;;;;;;;0.00;0.00;;;22.30;99.90;;;;;;4990504;28;20475;-92
2022/07/14 11:56:26;;;;;;;0.00;0.00;;;22.30;99.90;;;;;;4991147;28;20491;-91
2022/07/14 11:59:03;;;;;;;0.00;0.00;;;22.20;99.90;;;;;;4993993;28;20436;-91
2022/07/14 12:01:36;;;;;;;0.00;0.00;;;22.20;99.90;;;;;;4989776;28;20538;-92
2022/07/14 12:04:12;;;;;;;0.00;0.00;;;22.10;99.90;;;;;;4985010;28;20468;-94
2022/07/14 12:06:43;;;;;;;0.00;0.00;;;22.00;99.90;;;;;;4989970;28;20458;-92
2022/07/14 12:09:13;;;;;;;0.00;0.00;;;22.00;99.90;;;;;;4988865;28;20459;-90
2022/07/14 12:12:02;;;;;;;0.00;0.00;;;22.20;99.90;;;;;;4988003;28;20454;-92
2022/07/14 12:14:32;;;;;;;0.00;0.00;;;22.20;99.90;;;;;;4982796;28;20463;-91
2022/07/14 12:17:02;;;;;;;0.00;0.00;;;22.10;99.90;;;;;;4979918;28;20452;-91
2022/07/14 12:19:33;;;;;;;0.00;0.00;;;22.10;99.90;;;;;;4983892;28;20451;-91
2022/07/14 12:22:04;;;;;;;0.00;0.00;;;22.10;99.90;;;;;;4980015;28;20593;-94
2022/07/14 12:24:33;;;;;;;0.00;0.00;;;22.10;99.90;;;;;;4982220;28;20489;-90
2022/07/14 12:27:07;;;;;;;0.00;0.00;;;22.00;99.90;;;;;;4978177;28;20444;-92
2022/07/14 12:29:37;;;;;;;0.00;0.00;;;22.00;99.90;;;;;;4978082;28;20448;-91
2022/07/14 12:32:08;;;;;;;0.00;0.00;;;22.00;99.90;;;;;;4976549;28;20493;-90
2022/07/14 12:34:37;;;;;;;0.00;0.00;;;22.00;99.90;;;;;;4979263;28;20480;-92
2022/07/14 12:37:06;;;;;;;0.00;0.00;;;22.00;99.90;;;;;;4978221;28;20971;-91
2022/07/14 12:39:37;;;;;;;0.00;0.00;;;21.80;99.90;;;;;;4980203;28;20456;-91
2022/07/14 12:42:08;;;;;;;0.00;0.00;;;21.80;99.90;;;;;;4975300;28;20483;-93
2022/07/14 12:44:58;;;;;;;0.00;0.00;;;21.80;99.90;;;;;;4975156;28;20483;-92
2022/07/14 12:47:28;;;;;;;0.00;0.00;;;21.80;99.90;;;;;;4975513;28;20809;-92
2022/07/14 12:49:56;;;;;;;0.00;0.00;;;21.80;99.90;;;;;;4989198;28;20475;-92
2022/07/14 12:52:28;;;;;;;0.00;0.00;;;21.80;99.90;;;;;;4991152;28;20499;-92
2022/07/14 12:54:58;;;;;;;0.00;0.00;;;21.60;99.90;;;;;;4993730;28;20448;-91
2022/07/14 12:57:37;;;;;;;0.00;0.00;;;21.60;99.90;;;;;;4994865;28;20448;-91
2022/07/14 13:00:14;;;;;;;0.00;0.00;;;21.60;99.90;;;;;;4995248;28;20448;-89
2022/07/14 13:02:49;;;;;;;0.00;0.00;;;21.60;99.90;;;;;;4995299;28;20459;-90
2022/07/14 13:05:28;;;;;;;0.00;0.00;;;21.60;99.90;;;;;;4995393;28;20495;-91
2022/07/14 13:07:56;;;;;;;0.00;0.00;;;21.70;99.90;;;;;;4990764;28;20742;-89
2022/07/14 13:10:27;;;;;;;0.00;0.00;;;21.70;99.90;;;;;;4987183;28;20853;-93
2022/07/14 13:12:56;;;;;;;0.00;0.00;;;21.80;99.90;;;;;;4976889;28;20480;-91
2022/07/14 13:15:30;;;;;;;0.00;0.00;;;21.80;99.90;;;;;;4978163;28;20811;-92
2022/07/14 13:18:17;;;;;;;0.00;0.00;;;21.90;99.90;;;;;;4985196;28;20456;-92
2022/07/14 13:20:56;;;;;;;0.00;0.00;;;21.80;99.90;;;;;;4982322;28;20870;-91
2022/07/14 13:23:27;;;;;;;0.00;0.00;;;21.80;99.90;;;;;;4974829;28;20618;-92
2022/07/14 13:25:58;;;;;;;0.00;0.00;;;21.60;99.90;;;;;;4974226;28;20526;-91
2022/07/14 13:28:36;;;;;;;0.00;0.00;;;21.50;99.90;;;;;;4974423;28;20849;-91
2022/07/14 13:31:09;;;;;;;0.00;0.00;;;21.40;99.90;;;;;;4975468;28;20457;-91
2022/07/14 13:33:43;;;;;;;0.00;0.00;;;21.50;99.90;;;;;;4975346;28;21036;-93